sensor_id;sensor_type;location;lat;lon;timestamp;temperature;humidity
44775;DHT22;31340;51.402;0.016;2022-10-16T00:01:44;14.60;95.80
44775;DHT22;31340;51.402;0.016;2022-10-16T00:04:12;14.60;95.90
44775;DHT22;31340;51.402;0.016;2022-10-16T00:06:40;14.50;95.90
44775;DHT22;31340;51.402;0.016;2022-10-16T00:09:07;14.50;95.90
44775;DHT22;31340;51.402;0.016;2022-10-16T00:11:37;14.60;96.00
44775;DHT22;31340;51.402;0.016;2022-10-16T00:14:12;14.50;95.90
44775;DHT22;31340;51.402;0.016;2022-10-16T00:16:42;14.60;96.00
44775;DHT22;31340;51.402;0.016;2022-10-16T00:19:10;14.50;96.00
44775;DHT22;31340;51.402;0.016;2022-10-16T00:21:39;14.50;96.10
44775;DHT22;31340;51.402;0.016;2022-10-16T00:24:25;14.60;96.50
44775;DHT22;31340;51.402;0.016;2022-10-16T00:26:55;14.50;96.20
44775;DHT22;31340;51.402;0.016;2022-10-16T00:29:22;14.50;96.30
44775;DHT22;31340;51.402;0.016;2022-10-16T00:31:49;14.60;96.40
44775;DHT22;31340;51.402;0.016;2022-10-16T00:34:17;14.50;96.30
44775;DHT22;31340;51.402;0.016;2022-10-16T00:36:47;14.60;96.20
44775;DHT22;31340;51.402;0.016;2022-10-16T00:39:15;14.60;96.10
44775;DHT22;31340;51.402;0.016;2022-10-16T00:41:43;14.50;96.10
44775;DHT22;31340;51.402;0.016;2022-10-16T00:44:49;14.60;96.10
44775;DHT22;31340;51.402;0.016;2022-10-16T00:47:40;14.50;96.10
44775;DHT22;31340;51.402;0.016;2022-10-16T00:50:13;14.50;96.20
44775;DHT22;31340;51.402;0.016;2022-10-16T00:52:46;14.50;96.20
44775;DHT22;31340;51.402;0.016;2022-10-16T00:55:16;14.40;96.30
44775;DHT22;31340;51.402;0.016;2022-10-16T00:57:44;14.40;96.30
44775;DHT22;31340;51.402;0.016;2022-10-16T01:00:17;14.40;96.40
44775;DHT22;31340;51.402;0.016;2022-10-16T01:02:51;14.40;96.40
44775;DHT22;31340;51.402;0.016;2022-10-16T01:05:20;14.30;96.40
44775;DHT22;31340;51.402;0.016;2022-10-16T01:08:06;14.30;96.50
44775;DHT22;31340;51.402;0.016;2022-10-16T01:10:57;14.30;96.60
44775;DHT22;31340;51.402;0.016;2022-10-16T01:13:29;14.30;96.70
44775;DHT22;31340;51.402;0.016;2022-10-16T01:16:16;14.20;97.00
44775;DHT22;31340;51.402;0.016;2022-10-16T01:18:59;14.20;96.80
44775;DHT22;31340;51.402;0.016;2022-10-16T01:21:42;14.30;96.90
44775;DHT22;31340;51.402;0.016;2022-10-16T01:24:38;14.20;96.90
44775;DHT22;31340;51.402;0.016;2022-10-16T01:27:20;14.20;97.00
44775;DHT22;31340;51.402;0.016;2022-10-16T01:30:09;14.20;97.10
44775;DHT22;31340;51.402;0.016;2022-10-16T01:32:41;14.10;97.20
44775;DHT22;31340;51.402;0.016;2022-10-16T01:35:25;14.10;97.20
44775;DHT22;31340;51.402;0.016;2022-10-16T01:38:10;14.10;97.40
44775;DHT22;31340;51.402;0.016;2022-10-16T01:40:43;14.10;97.50
44775;DHT22;31340;51.402;0.016;2022-10-16T01:43:20;14.10;97.60
44775;DHT22;31340;51.402;0.016;2022-10-16T01:45:49;14.00;97.70
44775;DHT22;31340;51.402;0.016;2022-10-16T01:48:19;14.10;98.10
44775;DHT22;31340;51.402;0.016;2022-10-16T01:51:04;14.00;97.80
44775;DHT22;31340;51.402;0.016;2022-10-16T01:53:33;14.00;98.00
44775;DHT22;31340;51.402;0.016;2022-10-16T01:56:04;14.00;98.00
44775;DHT22;31340;51.402;0.016;2022-10-16T01:58:36;14.00;98.00
44775;DHT22;31340;51.402;0.016;2022-10-16T02:01:07;14.10;98.20
44775;DHT22;31340;51.402;0.016;2022-10-16T02:03:38;14.00;98.20
44775;DHT22;31340;51.402;0.016;2022-10-16T02:06:08;14.00;98.30
44775;DHT22;31340;51.402;0.016;2022-10-16T02:08:36;14.00;98.30
44775;DHT22;31340;51.402;0.016;2022-10-16T02:11:06;14.00;98.40
44775;DHT22;31340;51.402;0.016;2022-10-16T02:13:53;14.10;98.50
44775;DHT22;31340;51.402;0.016;2022-10-16T02:16:33;14.10;98.60
44775;DHT22;31340;51.402;0.016;2022-10-16T02:19:01;14.10;98.60
44775;DHT22;31340;51.402;0.016;2022-10-16T02:21:32;14.10;98.50
44775;DHT22;31340;51.402;0.016;2022-10-16T02:24:24;14.20;98.50
44775;DHT22;31340;51.402;0.016;2022-10-16T02:29:40;14.20;98.40
44775;DHT22;31340;51.402;0.016;2022-10-16T02:32:13;14.30;98.30
44775;DHT22;31340;51.402;0.016;2022-10-16T02:34:42;14.30;98.20
44775;DHT22;31340;51.402;0.016;2022-10-16T02:37:10;14.30;98.00
44775;DHT22;31340;51.402;0.016;2022-10-16T02:39:38;14.30;97.90
44775;DHT22;31340;51.402;0.016;2022-10-16T02:42:12;14.30;97.70
44775;DHT22;31340;51.402;0.016;2022-10-16T02:44:40;14.30;97.70
44775;DHT22;31340;51.402;0.016;2022-10-16T02:47:07;14.30;97.70
44775;DHT22;31340;51.402;0.016;2022-10-16T02:49:35;14.30;97.60
44775;DHT22;31340;51.402;0.016;2022-10-16T02:52:03;14.30;97.50
44775;DHT22;31340;51.402;0.016;2022-10-16T02:54:30;14.30;97.40
44775;DHT22;31340;51.402;0.016;2022-10-16T02:56:57;14.30;97.40
44775;DHT22;31340;51.402;0.016;2022-10-16T02:59:25;14.30;97.40
44775;DHT22;31340;51.402;0.016;2022-10-16T03:01:52;14.20;97.30
44775;DHT22;31340;51.402;0.016;2022-10-16T03:04:20;14.20;97.30
44775;DHT22;31340;51.402;0.016;2022-10-16T03:06:47;14.20;97.20
44775;DHT22;31340;51.402;0.016;2022-10-16T03:09:15;14.10;97.20
44775;DHT22;31340;51.402;0.016;2022-10-16T03:11:42;14.10;97.20
44775;DHT22;31340;51.402;0.016;2022-10-16T03:14:10;14.10;97.20
44775;DHT22;31340;51.402;0.016;2022-10-16T03:16:37;14.10;97.00
44775;DHT22;31340;51.402;0.016;2022-10-16T03:19:05;14.10;97.00
44775;DHT22;31340;51.402;0.016;2022-10-16T03:21:32;14.10;96.90
44775;DHT22;31340;51.402;0.016;2022-10-16T03:24:00;14.00;96.90
44775;DHT22;31340;51.402;0.016;2022-10-16T03:26:27;14.00;96.80
44775;DHT22;31340;51.402;0.016;2022-10-16T03:28:55;13.90;96.70
44775;DHT22;31340;51.402;0.016;2022-10-16T03:31:22;14.00;96.70
44775;DHT22;31340;51.402;0.016;2022-10-16T03:33:50;13.90;96.60
44775;DHT22;31340;51.402;0.016;2022-10-16T03:36:17;13.90;96.50
44775;DHT22;31340;51.402;0.016;2022-10-16T03:38:44;13.90;96.50
44775;DHT22;31340;51.402;0.016;2022-10-16T03:41:12;13.90;96.50
44775;DHT22;31340;51.402;0.016;2022-10-16T03:43:39;13.80;96.40
44775;DHT22;31340;51.402;0.016;2022-10-16T03:46:07;13.80;96.30
44775;DHT22;31340;51.402;0.016;2022-10-16T03:48:34;13.80;96.30
44775;DHT22;31340;51.402;0.016;2022-10-16T03:51:02;13.80;96.30
44775;DHT22;31340;51.402;0.016;2022-10-16T03:53:29;13.80;96.20
44775;DHT22;31340;51.402;0.016;2022-10-16T03:55:56;13.80;96.20
44775;DHT22;31340;51.402;0.016;2022-10-16T03:58:24;13.80;96.20
44775;DHT22;31340;51.402;0.016;2022-10-16T04:00:51;13.80;96.30
44775;DHT22;31340;51.402;0.016;2022-10-16T04:03:19;13.70;96.20
44775;DHT22;31340;51.402;0.016;2022-10-16T04:05:47;13.70;96.30
44775;DHT22;31340;51.402;0.016;2022-10-16T04:08:14;13.70;96.40
44775;DHT22;31340;51.402;0.016;2022-10-16T04:10:45;13.70;96.40
44775;DHT22;31340;51.402;0.016;2022-10-16T04:13:12;13.70;96.50
44775;DHT22;31340;51.402;0.016;2022-10-16T04:15:40;13.70;96.40
44775;DHT22;31340;51.402;0.016;2022-10-16T04:18:07;13.60;96.60
44775;DHT22;31340;51.402;0.016;2022-10-16T04:20:35;13.60;96.60
44775;DHT22;31340;51.402;0.016;2022-10-16T04:23:02;13.60;96.70
44775;DHT22;31340;51.402;0.016;2022-10-16T04:25:30;13.60;96.80
44775;DHT22;31340;51.402;0.016;2022-10-16T04:27:58;13.60;96.90
44775;DHT22;31340;51.402;0.016;2022-10-16T04:30:25;13.50;96.90
44775;DHT22;31340;51.402;0.016;2022-10-16T04:32:53;13.60;97.00
44775;DHT22;31340;51.402;0.016;2022-10-16T04:35:21;13.50;97.00
44775;DHT22;31340;51.402;0.016;2022-10-16T04:37:48;13.50;97.20
44775;DHT22;31340;51.402;0.016;2022-10-16T04:40:17;13.50;97.20
44775;DHT22;31340;51.402;0.016;2022-10-16T04:42:45;13.50;97.30
44775;DHT22;31340;51.402;0.016;2022-10-16T04:45:12;13.40;97.30
44775;DHT22;31340;51.402;0.016;2022-10-16T04:47:43;13.40;97.30
44775;DHT22;31340;51.402;0.016;2022-10-16T04:50:10;13.40;97.20
44775;DHT22;31340;51.402;0.016;2022-10-16T04:52:38;13.40;97.40
44775;DHT22;31340;51.402;0.016;2022-10-16T04:55:06;13.40;97.40
44775;DHT22;31340;51.402;0.016;2022-10-16T04:57:34;13.40;97.50
44775;DHT22;31340;51.402;0.016;2022-10-16T05:00:02;13.40;97.50
44775;DHT22;31340;51.402;0.016;2022-10-16T05:02:30;13.30;97.50
44775;DHT22;31340;51.402;0.016;2022-10-16T05:04:58;13.30;97.50
44775;DHT22;31340;51.402;0.016;2022-10-16T05:07:25;13.30;97.60
44775;DHT22;31340;51.402;0.016;2022-10-16T05:09:53;13.30;97.70
44775;DHT22;31340;51.402;0.016;2022-10-16T05:12:21;13.30;97.70
44775;DHT22;31340;51.402;0.016;2022-10-16T05:14:48;13.30;97.70
44775;DHT22;31340;51.402;0.016;2022-10-16T05:17:16;13.30;97.70
44775;DHT22;31340;51.402;0.016;2022-10-16T05:19:43;13.30;97.70
44775;DHT22;31340;51.402;0.016;2022-10-16T05:22:11;13.30;97.70
44775;DHT22;31340;51.402;0.016;2022-10-16T05:24:39;13.30;97.60
44775;DHT22;31340;51.402;0.016;2022-10-16T05:27:06;13.20;97.50
44775;DHT22;31340;51.402;0.016;2022-10-16T05:29:33;13.30;97.40
44775;DHT22;31340;51.402;0.016;2022-10-16T05:32:02;13.30;97.30
44775;DHT22;31340;51.402;0.016;2022-10-16T05:34:30;13.30;97.30
44775;DHT22;31340;51.402;0.016;2022-10-16T05:36:57;13.30;97.30
44775;DHT22;31340;51.402;0.016;2022-10-16T05:39:25;13.30;97.20
44775;DHT22;31340;51.402;0.016;2022-10-16T05:41:52;13.20;97.20
44775;DHT22;31340;51.402;0.016;2022-10-16T05:44:19;13.20;97.10
44775;DHT22;31340;51.402;0.016;2022-10-16T05:46:47;13.20;97.10
44775;DHT22;31340;51.402;0.016;2022-10-16T05:49:15;13.20;97.20
44775;DHT22;31340;51.402;0.016;2022-10-16T05:51:43;13.20;97.20
44775;DHT22;31340;51.402;0.016;2022-10-16T05:54:10;13.20;97.20
44775;DHT22;31340;51.402;0.016;2022-10-16T05:56:38;13.20;97.20
44775;DHT22;31340;51.402;0.016;2022-10-16T05:59:05;13.20;97.30
44775;DHT22;31340;51.402;0.016;2022-10-16T06:01:33;13.20;97.60
44775;DHT22;31340;51.402;0.016;2022-10-16T06:04:01;13.10;97.20
44775;DHT22;31340;51.402;0.016;2022-10-16T06:06:29;13.20;97.20
44775;DHT22;31340;51.402;0.016;2022-10-16T06:08:58;13.20;97.20
44775;DHT22;31340;51.402;0.016;2022-10-16T06:11:29;13.10;97.20
44775;DHT22;31340;51.402;0.016;2022-10-16T06:14:00;13.10;97.20
44775;DHT22;31340;51.402;0.016;2022-10-16T06:16:29;13.10;97.10
44775;DHT22;31340;51.402;0.016;2022-10-16T06:18:57;13.10;97.10
44775;DHT22;31340;51.402;0.016;2022-10-16T06:21:27;13.10;97.20
44775;DHT22;31340;51.402;0.016;2022-10-16T06:23:55;13.00;97.20
44775;DHT22;31340;51.402;0.016;2022-10-16T06:26:26;13.00;97.20
44775;DHT22;31340;51.402;0.016;2022-10-16T06:28:55;13.00;97.20
44775;DHT22;31340;51.402;0.016;2022-10-16T06:31:24;13.00;97.20
44775;DHT22;31340;51.402;0.016;2022-10-16T06:33:54;13.00;97.20
44775;DHT22;31340;51.402;0.016;2022-10-16T06:36:24;13.00;97.20
44775;DHT22;31340;51.402;0.016;2022-10-16T06:38:52;13.00;97.20
44775;DHT22;31340;51.402;0.016;2022-10-16T06:41:21;13.00;97.20
44775;DHT22;31340;51.402;0.016;2022-10-16T06:43:50;12.90;97.20
44775;DHT22;31340;51.402;0.016;2022-10-16T06:46:20;13.00;97.20
44775;DHT22;31340;51.402;0.016;2022-10-16T06:48:48;12.90;97.20
44775;DHT22;31340;51.402;0.016;2022-10-16T06:51:17;12.90;97.20
44775;DHT22;31340;51.402;0.016;2022-10-16T06:53:50;12.90;97.20
44775;DHT22;31340;51.402;0.016;2022-10-16T06:56:31;12.90;97.20
44775;DHT22;31340;51.402;0.016;2022-10-16T06:58:59;12.90;97.20
44775;DHT22;31340;51.402;0.016;2022-10-16T07:01:27;12.90;97.20
44775;DHT22;31340;51.402;0.016;2022-10-16T07:03:55;12.90;97.10
44775;DHT22;31340;51.402;0.016;2022-10-16T07:06:24;12.90;97.10
44775;DHT22;31340;51.402;0.016;2022-10-16T07:08:53;12.90;97.10
44775;DHT22;31340;51.402;0.016;2022-10-16T07:11:22;12.90;97.00
44775;DHT22;31340;51.402;0.016;2022-10-16T07:13:50;12.90;97.10
44775;DHT22;31340;51.402;0.016;2022-10-16T07:16:24;12.90;97.10
44775;DHT22;31340;51.402;0.016;2022-10-16T07:18:54;12.90;97.20
44775;DHT22;31340;51.402;0.016;2022-10-16T07:21:28;12.90;97.10
44775;DHT22;31340;51.402;0.016;2022-10-16T07:23:58;12.90;97.20
44775;DHT22;31340;51.402;0.016;2022-10-16T07:26:28;13.00;97.20
44775;DHT22;31340;51.402;0.016;2022-10-16T07:28:57;13.00;97.30
44775;DHT22;31340;51.402;0.016;2022-10-16T07:31:25;13.00;97.30
44775;DHT22;31340;51.402;0.016;2022-10-16T07:33:53;13.00;97.30
44775;DHT22;31340;51.402;0.016;2022-10-16T07:36:21;13.00;97.30
44775;DHT22;31340;51.402;0.016;2022-10-16T07:38:49;13.00;97.40
44775;DHT22;31340;51.402;0.016;2022-10-16T07:41:21;13.00;97.40
44775;DHT22;31340;51.402;0.016;2022-10-16T07:43:51;13.10;97.40
44775;DHT22;31340;51.402;0.016;2022-10-16T07:46:20;13.10;97.40
44775;DHT22;31340;51.402;0.016;2022-10-16T07:48:48;13.20;97.40
44775;DHT22;31340;51.402;0.016;2022-10-16T07:51:18;13.20;97.40
44775;DHT22;31340;51.402;0.016;2022-10-16T07:53:46;13.20;97.40
44775;DHT22;31340;51.402;0.016;2022-10-16T07:56:15;13.30;97.40
44775;DHT22;31340;51.402;0.016;2022-10-16T07:58:43;13.30;97.40
44775;DHT22;31340;51.402;0.016;2022-10-16T08:01:13;13.40;97.30
44775;DHT22;31340;51.402;0.016;2022-10-16T08:03:45;13.40;97.30
44775;DHT22;31340;51.402;0.016;2022-10-16T08:06:14;13.40;97.20
44775;DHT22;31340;51.402;0.016;2022-10-16T08:08:42;13.50;97.30
44775;DHT22;31340;51.402;0.016;2022-10-16T08:11:10;13.50;97.20
44775;DHT22;31340;51.402;0.016;2022-10-16T08:13:37;13.60;97.10
44775;DHT22;31340;51.402;0.016;2022-10-16T08:16:05;13.70;97.10
44775;DHT22;31340;51.402;0.016;2022-10-16T08:18:35;13.80;97.00
44775;DHT22;31340;51.402;0.016;2022-10-16T08:21:04;13.80;96.90
44775;DHT22;31340;51.402;0.016;2022-10-16T08:23:33;13.90;96.90
44775;DHT22;31340;51.402;0.016;2022-10-16T08:26:06;14.00;96.70
44775;DHT22;31340;51.402;0.016;2022-10-16T08:28:34;14.10;96.50
44775;DHT22;31340;51.402;0.016;2022-10-16T08:31:13;14.30;96.50
44775;DHT22;31340;51.402;0.016;2022-10-16T08:33:43;14.40;96.30
44775;DHT22;31340;51.402;0.016;2022-10-16T08:36:11;14.50;96.40
44775;DHT22;31340;51.402;0.016;2022-10-16T08:38:39;14.50;95.90
44775;DHT22;31340;51.402;0.016;2022-10-16T08:49:41;15.10;94.60
44775;DHT22;31340;51.402;0.016;2022-10-16T08:52:12;15.20;94.50
44775;DHT22;31340;51.402;0.016;2022-10-16T08:54:41;15.30;94.40
44775;DHT22;31340;51.402;0.016;2022-10-16T08:57:21;15.30;94.40
44775;DHT22;31340;51.402;0.016;2022-10-16T08:59:52;15.40;94.20
44775;DHT22;31340;51.402;0.016;2022-10-16T09:08:46;15.60;93.20
44775;DHT22;31340;51.402;0.016;2022-10-16T09:16:36;15.70;92.50
44775;DHT22;31340;51.402;0.016;2022-10-16T09:19:23;15.80;92.30
44775;DHT22;31340;51.402;0.016;2022-10-16T09:21:51;15.80;92.20
44775;DHT22;31340;51.402;0.016;2022-10-16T09:24:25;15.90;92.20
44775;DHT22;31340;51.402;0.016;2022-10-16T09:26:55;15.90;92.00
44775;DHT22;31340;51.402;0.016;2022-10-16T09:29:22;16.00;91.80
44775;DHT22;31340;51.402;0.016;2022-10-16T09:31:55;16.00;91.70
44775;DHT22;31340;51.402;0.016;2022-10-16T09:34:30;16.10;91.70
44775;DHT22;31340;51.402;0.016;2022-10-16T09:37:03;16.20;91.50
44775;DHT22;31340;51.402;0.016;2022-10-16T09:39:47;16.20;91.30
44775;DHT22;31340;51.402;0.016;2022-10-16T09:42:35;16.30;91.10
44775;DHT22;31340;51.402;0.016;2022-10-16T09:45:04;16.30;91.20
44775;DHT22;31340;51.402;0.016;2022-10-16T09:47:32;16.40;91.20
44775;DHT22;31340;51.402;0.016;2022-10-16T09:50:24;16.40;91.00
44775;DHT22;31340;51.402;0.016;2022-10-16T09:53:11;16.50;90.70
44775;DHT22;31340;51.402;0.016;2022-10-16T09:55:50;16.60;90.60
44775;DHT22;31340;51.402;0.016;2022-10-16T09:58:21;16.70;90.40
44775;DHT22;31340;51.402;0.016;2022-10-16T10:00:54;16.70;90.40
44775;DHT22;31340;51.402;0.016;2022-10-16T10:03:36;16.80;90.30
44775;DHT22;31340;51.402;0.016;2022-10-16T10:06:21;16.90;90.10
44775;DHT22;31340;51.402;0.016;2022-10-16T10:08:54;17.00;90.00
44775;DHT22;31340;51.402;0.016;2022-10-16T10:11:42;17.10;89.00
44775;DHT22;31340;51.402;0.016;2022-10-16T10:22:38;17.40;86.80
44775;DHT22;31340;51.402;0.016;2022-10-16T10:25:16;17.60;85.70
44775;DHT22;31340;51.402;0.016;2022-10-16T10:30:50;17.80;84.40
44775;DHT22;31340;51.402;0.016;2022-10-16T10:33:52;17.90;83.90
44775;DHT22;31340;51.402;0.016;2022-10-16T10:36:30;18.00;82.70
44775;DHT22;31340;51.402;0.016;2022-10-16T10:39:24;18.10;82.80
44775;DHT22;31340;51.402;0.016;2022-10-16T10:50:39;18.70;80.40
44775;DHT22;31340;51.402;0.016;2022-10-16T10:53:27;18.80;80.20
44775;DHT22;31340;51.402;0.016;2022-10-16T10:59:16;19.20;78.50
44775;DHT22;31340;51.402;0.016;2022-10-16T11:01:59;19.30;77.60
44775;DHT22;31340;51.402;0.016;2022-10-16T11:04:41;19.40;77.20
44775;DHT22;31340;51.402;0.016;2022-10-16T11:07:40;19.50;76.90
44775;DHT22;31340;51.402;0.016;2022-10-16T11:10:17;19.50;76.80
44775;DHT22;31340;51.402;0.016;2022-10-16T11:12:50;19.70;76.80
44775;DHT22;31340;51.402;0.016;2022-10-16T11:15:24;19.70;76.30
44775;DHT22;31340;51.402;0.016;2022-10-16T11:20:42;20.00;75.30
44775;DHT22;31340;51.402;0.016;2022-10-16T11:26:17;20.20;75.20
44775;DHT22;31340;51.402;0.016;2022-10-16T11:28:51;20.30;75.10
44775;DHT22;31340;51.402;0.016;2022-10-16T11:34:08;20.50;74.20
44775;DHT22;31340;51.402;0.016;2022-10-16T11:36:47;20.60;73.30
44775;DHT22;31340;51.402;0.016;2022-10-16T11:39:20;20.70;73.10
44775;DHT22;31340;51.402;0.016;2022-10-16T11:41:51;20.80;73.10
44775;DHT22;31340;51.402;0.016;2022-10-16T11:50:22;20.90;72.00
44775;DHT22;31340;51.402;0.016;2022-10-16T11:55:40;21.00;71.50
44775;DHT22;31340;51.402;0.016;2022-10-16T12:09:26;21.30;71.00
44775;DHT22;31340;51.402;0.016;2022-10-16T12:11:54;21.40;71.20
44775;DHT22;31340;51.402;0.016;2022-10-16T12:14:35;21.50;72.40
44775;DHT22;31340;51.402;0.016;2022-10-16T12:17:24;21.60;71.10
44775;DHT22;31340;51.402;0.016;2022-10-16T12:20:12;21.60;70.30
44775;DHT22;31340;51.402;0.016;2022-10-16T12:23:01;21.60;70.00
44775;DHT22;31340;51.402;0.016;2022-10-16T12:25:35;21.50;70.40
44775;DHT22;31340;51.402;0.016;2022-10-16T12:30:43;21.30;71.10
44775;DHT22;31340;51.402;0.016;2022-10-16T12:33:56;21.30;71.60
44775;DHT22;31340;51.402;0.016;2022-10-16T12:36:33;21.20;71.60
44775;DHT22;31340;51.402;0.016;2022-10-16T12:39:01;21.10;71.90
44775;DHT22;31340;51.402;0.016;2022-10-16T12:41:34;21.00;72.50
44775;DHT22;31340;51.402;0.016;2022-10-16T12:44:02;20.90;72.90
44775;DHT22;31340;51.402;0.016;2022-10-16T12:51:36;20.60;74.10
44775;DHT22;31340;51.402;0.016;2022-10-16T13:02:40;20.20;75.80
44775;DHT22;31340;51.402;0.016;2022-10-16T13:08:30;20.10;76.70
44775;DHT22;31340;51.402;0.016;2022-10-16T13:14:16;19.90;77.70
44775;DHT22;31340;51.402;0.016;2022-10-16T13:16:54;19.90;78.30
44775;DHT22;31340;51.402;0.016;2022-10-16T13:19:36;19.90;78.70
44775;DHT22;31340;51.402;0.016;2022-10-16T13:25:13;19.80;78.90
44775;DHT22;31340;51.402;0.016;2022-10-16T13:28:05;19.70;79.20
44775;DHT22;31340;51.402;0.016;2022-10-16T13:30:44;19.70;79.80
44775;DHT22;31340;51.402;0.016;2022-10-16T13:33:36;19.70;80.00
44775;DHT22;31340;51.402;0.016;2022-10-16T13:36:05;19.60;80.20
44775;DHT22;31340;51.402;0.016;2022-10-16T13:38:35;19.60;80.40
44775;DHT22;31340;51.402;0.016;2022-10-16T13:41:17;19.50;80.70
44775;DHT22;31340;51.402;0.016;2022-10-16T13:43:52;19.50;81.10
44775;DHT22;31340;51.402;0.016;2022-10-16T13:46:22;19.50;81.30
44775;DHT22;31340;51.402;0.016;2022-10-16T13:49:04;19.50;81.70
44775;DHT22;31340;51.402;0.016;2022-10-16T13:51:33;19.50;82.10
44775;DHT22;31340;51.402;0.016;2022-10-16T13:54:01;19.40;82.30
44775;DHT22;31340;51.402;0.016;2022-10-16T13:56:31;19.40;82.60
44775;DHT22;31340;51.402;0.016;2022-10-16T13:59:05;19.50;83.20
44775;DHT22;31340;51.402;0.016;2022-10-16T14:01:41;19.50;83.10
44775;DHT22;31340;51.402;0.016;2022-10-16T14:04:11;19.50;83.10
44775;DHT22;31340;51.402;0.016;2022-10-16T14:06:46;19.50;83.30
44775;DHT22;31340;51.402;0.016;2022-10-16T14:09:28;19.50;83.50
44775;DHT22;31340;51.402;0.016;2022-10-16T14:12:02;19.50;83.50
44775;DHT22;31340;51.402;0.016;2022-10-16T14:14:45;19.50;83.40
44775;DHT22;31340;51.402;0.016;2022-10-16T14:17:33;19.50;83.30
44775;DHT22;31340;51.402;0.016;2022-10-16T14:20:04;19.50;83.50
44775;DHT22;31340;51.402;0.016;2022-10-16T14:22:36;19.40;83.70
44775;DHT22;31340;51.402;0.016;2022-10-16T14:30:56;19.40;84.20
44775;DHT22;31340;51.402;0.016;2022-10-16T14:38:33;19.30;84.80
44775;DHT22;31340;51.402;0.016;2022-10-16T14:41:01;19.20;85.00
44775;DHT22;31340;51.402;0.016;2022-10-16T14:43:34;19.20;85.40
44775;DHT22;31340;51.402;0.016;2022-10-16T14:46:06;19.20;85.70
44775;DHT22;31340;51.402;0.016;2022-10-16T14:48:36;19.20;85.90
44775;DHT22;31340;51.402;0.016;2022-10-16T14:51:13;19.10;86.00
44775;DHT22;31340;51.402;0.016;2022-10-16T14:53:42;19.10;86.40
44775;DHT22;31340;51.402;0.016;2022-10-16T14:56:31;19.10;86.60
44775;DHT22;31340;51.402;0.016;2022-10-16T14:59:01;19.10;86.90
44775;DHT22;31340;51.402;0.016;2022-10-16T15:01:29;19.10;87.10
44775;DHT22;31340;51.402;0.016;2022-10-16T15:03:57;19.00;87.30
44775;DHT22;31340;51.402;0.016;2022-10-16T15:06:24;19.00;87.50
44775;DHT22;31340;51.402;0.016;2022-10-16T15:08:52;19.00;87.60
44775;DHT22;31340;51.402;0.016;2022-10-16T15:11:19;19.00;87.80
44775;DHT22;31340;51.402;0.016;2022-10-16T15:13:50;18.90;88.00
44775;DHT22;31340;51.402;0.016;2022-10-16T15:16:18;18.90;88.40
44775;DHT22;31340;51.402;0.016;2022-10-16T15:18:45;18.80;88.50
44775;DHT22;31340;51.402;0.016;2022-10-16T15:21:25;18.80;88.90
44775;DHT22;31340;51.402;0.016;2022-10-16T15:23:53;18.80;89.30
44775;DHT22;31340;51.402;0.016;2022-10-16T15:26:21;18.70;89.40
44775;DHT22;31340;51.402;0.016;2022-10-16T15:28:48;18.60;89.80
44775;DHT22;31340;51.402;0.016;2022-10-16T15:31:16;18.60;90.00
44775;DHT22;31340;51.402;0.016;2022-10-16T15:33:43;18.60;90.20
44775;DHT22;31340;51.402;0.016;2022-10-16T15:36:10;18.60;90.30
44775;DHT22;31340;51.402;0.016;2022-10-16T15:38:38;18.50;90.50
44775;DHT22;31340;51.402;0.016;2022-10-16T15:41:05;18.50;90.60
44775;DHT22;31340;51.402;0.016;2022-10-16T15:43:33;18.40;90.70
44775;DHT22;31340;51.402;0.016;2022-10-16T15:46:03;18.40;90.90
44775;DHT22;31340;51.402;0.016;2022-10-16T15:48:32;18.40;91.10
44775;DHT22;31340;51.402;0.016;2022-10-16T15:51:00;18.30;91.10
44775;DHT22;31340;51.402;0.016;2022-10-16T15:53:31;18.30;91.30
44775;DHT22;31340;51.402;0.016;2022-10-16T15:56:04;18.30;91.40
44775;DHT22;31340;51.402;0.016;2022-10-16T15:58:33;18.20;91.90
44775;DHT22;31340;51.402;0.016;2022-10-16T16:01:01;18.10;91.70
44775;DHT22;31340;51.402;0.016;2022-10-16T16:03:30;18.10;91.80
44775;DHT22;31340;51.402;0.016;2022-10-16T16:06:02;18.10;92.40
44775;DHT22;31340;51.402;0.016;2022-10-16T16:08:31;18.00;92.20
44775;DHT22;31340;51.402;0.016;2022-10-16T16:11:25;17.90;92.40
44775;DHT22;31340;51.402;0.016;2022-10-16T16:13:53;17.90;92.60
44775;DHT22;31340;51.402;0.016;2022-10-16T16:16:22;17.80;92.70
44775;DHT22;31340;51.402;0.016;2022-10-16T16:18:52;17.90;92.90
44775;DHT22;31340;51.402;0.016;2022-10-16T16:21:20;17.80;93.10
44775;DHT22;31340;51.402;0.016;2022-10-16T16:23:47;17.80;93.20
44775;DHT22;31340;51.402;0.016;2022-10-16T16:26:22;17.80;93.30
44775;DHT22;31340;51.402;0.016;2022-10-16T16:28:54;17.70;93.50
44775;DHT22;31340;51.402;0.016;2022-10-16T16:31:27;17.70;93.60
44775;DHT22;31340;51.402;0.016;2022-10-16T16:33:55;17.70;93.80
44775;DHT22;31340;51.402;0.016;2022-10-16T16:36:25;17.60;93.90
44775;DHT22;31340;51.402;0.016;2022-10-16T16:38:52;17.60;94.10
44775;DHT22;31340;51.402;0.016;2022-10-16T16:41:25;17.60;94.20
44775;DHT22;31340;51.402;0.016;2022-10-16T16:43:54;17.50;94.30
44775;DHT22;31340;51.402;0.016;2022-10-16T16:46:22;17.60;94.50
44775;DHT22;31340;51.402;0.016;2022-10-16T16:48:50;17.50;94.70
44775;DHT22;31340;51.402;0.016;2022-10-16T16:51:18;17.50;94.90
44775;DHT22;31340;51.402;0.016;2022-10-16T16:53:49;17.50;95.10
44775;DHT22;31340;51.402;0.016;2022-10-16T16:56:17;17.40;95.20
44775;DHT22;31340;51.402;0.016;2022-10-16T16:58:46;17.40;95.30
44775;DHT22;31340;51.402;0.016;2022-10-16T17:01:14;17.30;95.50
44775;DHT22;31340;51.402;0.016;2022-10-16T17:03:48;17.30;95.60
44775;DHT22;31340;51.402;0.016;2022-10-16T17:06:19;17.30;95.70
44775;DHT22;31340;51.402;0.016;2022-10-16T17:08:48;17.30;95.80
44775;DHT22;31340;51.402;0.016;2022-10-16T17:11:20;17.20;95.90
44775;DHT22;31340;51.402;0.016;2022-10-16T17:13:49;17.20;96.00
44775;DHT22;31340;51.402;0.016;2022-10-16T17:16:24;17.20;96.10
44775;DHT22;31340;51.402;0.016;2022-10-16T17:18:53;17.10;96.20
44775;DHT22;31340;51.402;0.016;2022-10-16T17:21:20;17.10;96.30
44775;DHT22;31340;51.402;0.016;2022-10-16T17:23:51;17.10;96.40
44775;DHT22;31340;51.402;0.016;2022-10-16T17:26:18;17.10;96.70
44775;DHT22;31340;51.402;0.016;2022-10-16T17:28:51;17.10;96.70
44775;DHT22;31340;51.402;0.016;2022-10-16T17:31:22;17.10;97.00
44775;DHT22;31340;51.402;0.016;2022-10-16T17:33:50;17.00;97.10
44775;DHT22;31340;51.402;0.016;2022-10-16T17:36:19;17.00;97.20
44775;DHT22;31340;51.402;0.016;2022-10-16T17:38:47;17.00;97.40
44775;DHT22;31340;51.402;0.016;2022-10-16T17:41:24;17.00;97.50
44775;DHT22;31340;51.402;0.016;2022-10-16T17:43:52;17.00;97.80
44775;DHT22;31340;51.402;0.016;2022-10-16T17:46:21;17.00;97.80
44775;DHT22;31340;51.402;0.016;2022-10-16T17:48:50;16.90;98.00
44775;DHT22;31340;51.402;0.016;2022-10-16T17:51:24;16.90;98.10